createdAt,value
2022-09-26T00:01:41.832Z,77.29
2022-09-26T00:04:24.087Z,77.44
2022-09-26T00:06:55.934Z,77.22
2022-09-26T00:09:26.055Z,77.65
2022-09-26T00:11:54.943Z,77.27
2022-09-26T00:14:26.621Z,77.20
2022-09-26T00:16:55.146Z,77.24
2022-09-26T00:19:23.516Z,77.18
2022-09-26T00:21:51.940Z,77.00
2022-09-26T00:24:20.225Z,77.25
2022-09-26T00:26:48.001Z,77.18
2022-09-26T00:29:16.236Z,77.17
2022-09-26T00:31:47.601Z,77.69
2022-09-26T00:34:18.256Z,77.87
2022-09-26T00:36:46.301Z,77.62
2022-09-26T00:39:16.678Z,78.18
2022-09-26T00:41:45.941Z,78.70
2022-09-26T00:44:56.832Z,78.57
2022-09-26T00:47:27.235Z,78.48
2022-09-26T00:50:04.570Z,78.50
2022-09-26T00:52:45.164Z,78.12
2022-09-26T00:55:18.877Z,78.11
2022-09-26T00:57:53.290Z,78.13
2022-09-26T01:00:21.475Z,78.39
2022-09-26T01:02:52.517Z,78.45
2022-09-26T01:05:23.350Z,78.28
2022-09-26T01:07:52.745Z,78.60
2022-09-26T01:10:21.105Z,78.64
2022-09-26T01:12:49.097Z,78.39
2022-09-26T01:15:17.170Z,78.31
2022-09-26T01:17:45.957Z,78.02
2022-09-26T01:20:36.556Z,77.73
2022-09-26T01:23:42.106Z,77.64
2022-09-26T01:26:12.936Z,77.66
2022-09-26T01:28:42.343Z,77.69
2022-09-26T01:32:16.708Z,77.76
2022-09-26T01:35:07.350Z,77.82
2022-09-26T01:37:49.058Z,77.89
2022-09-26T01:40:45.931Z,78.08
2022-09-26T01:43:34.353Z,78.20
2022-09-26T01:46:26.402Z,78.38
2022-09-26T01:49:02.443Z,78.82
2022-09-26T01:51:41.285Z,78.88
2022-09-26T01:54:17.922Z,79.14
2022-09-26T01:56:50.617Z,78.86
2022-09-26T01:59:29.052Z,78.97
2022-09-26T02:02:06.703Z,79.05
2022-09-26T02:04:41.383Z,79.01
2022-09-26T02:07:16.839Z,79.18
2022-09-26T02:09:52.009Z,79.20
2022-09-26T02:12:26.424Z,79.45
2022-09-26T02:14:58.359Z,79.36
2022-09-26T02:17:31.609Z,79.25
2022-09-26T02:20:05.558Z,79.26
2022-09-26T02:22:35.432Z,79.21
2022-09-26T02:25:04.731Z,79.57
2022-09-26T02:27:33.225Z,79.73
2022-09-26T02:30:01.782Z,80.10
2022-09-26T02:32:32.035Z,80.34
2022-09-26T02:35:01.335Z,80.19
2022-09-26T02:37:31.229Z,80.16
2022-09-26T02:40:01.144Z,80.06
2022-09-26T02:42:36.730Z,80.14
2022-09-26T02:45:27.020Z,80.06
2022-09-26T02:48:08.235Z,79.96
2022-09-26T02:50:48.516Z,79.99
2022-09-26T02:53:38.401Z,80.20
2022-09-26T02:56:46.244Z,79.90
2022-09-26T02:59:26.788Z,80.07
2022-09-26T03:02:06.388Z,80.44
2022-09-26T03:04:34.564Z,80.51
2022-09-26T03:07:07.400Z,80.55
2022-09-26T03:09:37.279Z,80.68
2022-09-26T03:12:08.253Z,81.36
2022-09-26T03:14:42.229Z,81.88
2022-09-26T03:17:10.749Z,82.64
2022-09-26T03:19:45.952Z,82.77
2022-09-26T03:22:16.393Z,83.30
2022-09-26T03:24:46.161Z,84.84
2022-09-26T03:27:16.689Z,84.51
2022-09-26T03:29:46.480Z,84.73
2022-09-26T03:32:19.529Z,85.79
2022-09-26T03:34:47.421Z,85.63
2022-09-26T03:37:16.242Z,86.14
2022-09-26T03:39:44.968Z,87.51
2022-09-26T03:42:24.582Z,87.33
2022-09-26T03:44:53.896Z,86.68
2022-09-26T03:47:44.447Z,88.61
2022-09-26T03:50:15.090Z,88.04
2022-09-26T03:52:43.196Z,87.98
2022-09-26T03:55:11.672Z,88.98
2022-09-26T03:57:39.744Z,88.86
2022-09-26T04:00:17.853Z,88.34
2022-09-26T04:02:46.646Z,88.46
2022-09-26T04:05:23.111Z,88.92
2022-09-26T04:07:51.036Z,89.38
2022-09-26T04:10:19.685Z,89.29
2022-09-26T04:12:47.588Z,89.47
2022-09-26T04:15:16.007Z,90.09
2022-09-26T04:17:44.588Z,89.71
2022-09-26T04:20:12.864Z,90.07
2022-09-26T04:22:42.045Z,90.87
2022-09-26T04:25:10.542Z,91.23
2022-09-26T04:27:39.035Z,91.20
2022-09-26T04:30:07.554Z,91.40
2022-09-26T04:32:39.749Z,90.97
2022-09-26T04:35:27.296Z,90.77
2022-09-26T04:37:55.267Z,91.29
2022-09-26T04:40:23.400Z,91.64
2022-09-26T04:43:11.407Z,91.67
2022-09-26T04:45:43.379Z,91.60
2022-09-26T04:48:11.798Z,92.38
2022-09-26T04:50:46.132Z,91.88
2022-09-26T04:53:14.106Z,91.62
2022-09-26T04:56:10.340Z,91.68
2022-09-26T04:58:38.885Z,91.24
2022-09-26T05:01:09.891Z,91.71
2022-09-26T05:03:49.700Z,91.30
2022-09-26T05:06:18.941Z,91.09
2022-09-26T05:08:47.789Z,91.09
2022-09-26T05:11:18.635Z,91.15
2022-09-26T05:13:51.250Z,91.22
2022-09-26T05:16:21.699Z,91.18
2022-09-26T05:18:52.098Z,91.00
2022-09-26T05:21:24.279Z,91.18
2022-09-26T05:24:11.120Z,92.52
2022-09-26T05:26:46.558Z,92.78
2022-09-26T05:29:26.309Z,92.97
2022-09-26T05:31:59.993Z,92.28
2022-09-26T05:34:28.661Z,91.92
2022-09-26T05:36:56.791Z,92.40
2022-09-26T05:39:43.416Z,91.87
2022-09-26T05:42:15.555Z,91.98
2022-09-26T05:44:44.080Z,92.30
2022-09-26T05:47:13.247Z,91.97
2022-09-26T05:49:41.823Z,91.90
2022-09-26T05:52:12.220Z,91.78
2022-09-26T05:54:40.345Z,91.74
2022-09-26T05:57:28.376Z,92.14
2022-09-26T05:59:58.263Z,91.96
2022-09-26T06:02:26.326Z,92.59
2022-09-26T06:05:06.283Z,92.32
2022-09-26T06:07:53.307Z,92.36
2022-09-26T06:10:40.361Z,92.17
2022-09-26T06:13:08.387Z,91.84
2022-09-26T06:15:55.249Z,91.72
2022-09-26T06:18:23.269Z,91.62
2022-09-26T06:20:51.445Z,91.56
2022-09-26T06:23:19.641Z,91.37
2022-09-26T06:25:49.223Z,91.29
2022-09-26T06:28:18.543Z,91.21
2022-09-26T06:30:46.899Z,90.99
2022-09-26T06:33:27.638Z,91.26
2022-09-26T06:36:18.171Z,91.02
2022-09-26T06:38:46.667Z,91.01
2022-09-26T06:41:17.912Z,90.89
2022-09-26T06:43:47.747Z,90.84
2022-09-26T06:46:47.507Z,91.38
2022-09-26T06:49:19.899Z,91.26
2022-09-26T06:51:50.012Z,91.40
2022-09-26T06:54:19.003Z,91.49
2022-09-26T06:56:47.839Z,91.45
2022-09-26T06:59:17.531Z,91.79
2022-09-26T07:01:53.280Z,91.79
2022-09-26T07:04:40.923Z,91.37
2022-09-26T07:07:20.825Z,91.72
2022-09-26T07:09:48.999Z,91.61
2022-09-26T07:12:40.887Z,92.28
2022-09-26T07:15:09.313Z,91.80
2022-09-26T07:17:37.481Z,91.75
2022-09-26T07:20:37.876Z,91.79
2022-09-26T07:23:24.412Z,91.85
2022-09-26T07:25:53.168Z,91.73
2022-09-26T07:28:21.374Z,91.95
2022-09-26T07:30:50.978Z,92.83
2022-09-26T07:33:40.348Z,92.67
2022-09-26T07:36:12.730Z,92.80
2022-09-26T07:38:42.851Z,92.93
2022-09-26T07:41:11.439Z,93.63
2022-09-26T07:44:34.633Z,94.24
2022-09-26T07:46:50.245Z,94.98
2022-09-26T07:49:37.599Z,95.68
2022-09-26T07:52:32.232Z,96.42
2022-09-26T07:55:28.230Z,97.37
2022-09-26T07:58:02.114Z,98.01
2022-09-26T08:00:56.297Z,98.33
2022-09-26T08:03:48.162Z,98.73
2022-09-26T08:06:38.725Z,99.01
2022-09-26T08:09:08.117Z,98.99
2022-09-26T08:11:56.065Z,99.04
2022-09-26T08:14:42.978Z,98.97
2022-09-26T08:17:28.454Z,98.64
2022-09-26T08:19:56.991Z,98.92
2022-09-26T08:22:25.016Z,98.18
2022-09-26T08:24:55.533Z,98.13
2022-09-26T08:27:44.287Z,98.55
2022-09-26T08:30:13.679Z,98.36
2022-09-26T08:32:42.125Z,98.34
2022-09-26T08:35:14.911Z,98.35
2022-09-26T08:38:07.395Z,98.64
2022-09-26T08:41:13.133Z,98.70
2022-09-26T08:43:56.484Z,98.39
2022-09-26T08:47:02.866Z,98.21
2022-09-26T08:50:20.927Z,99.18
2022-09-26T08:53:05.757Z,98.83
2022-09-26T08:55:44.565Z,98.74
2022-09-26T08:58:28.934Z,98.72
2022-09-26T09:01:05.234Z,98.82
2022-09-26T09:03:53.789Z,99.23
2022-09-26T09:06:21.836Z,99.49
2022-09-26T09:08:56.436Z,99.92
2022-09-26T09:12:09.259Z,99.83
2022-09-26T09:15:20.428Z,99.87
2022-09-26T09:18:45.108Z,99.96
2022-09-26T09:22:14.900Z,100.00
2022-09-26T09:25:04.945Z,100.00
2022-09-26T09:28:07.917Z,100.00
2022-09-26T09:30:38.567Z,100.00
2022-09-26T09:33:29.696Z,100.00
2022-09-26T09:36:21.197Z,100.00
2022-09-26T09:39:41.431Z,100.00
2022-09-26T09:42:26.132Z,100.00
2022-09-26T09:45:22.387Z,100.00
2022-09-26T09:47:50.516Z,100.00
2022-09-26T09:50:42.688Z,100.00
2022-09-26T09:53:24.797Z,100.00
2022-09-26T09:56:22.353Z,100.00
2022-09-26T09:59:17.557Z,100.00
2022-09-26T10:02:48.177Z,100.00
2022-09-26T10:05:45.042Z,100.00
2022-09-26T10:08:28.668Z,100.00
2022-09-26T10:11:23.114Z,100.00
2022-09-26T10:14:03.411Z,100.00
2022-09-26T10:17:09.651Z,100.00
2022-09-26T10:20:53.809Z,100.00
2022-09-26T10:23:27.689Z,99.57
2022-09-26T10:26:03.496Z,99.55
2022-09-26T10:28:37.700Z,98.52
2022-09-26T10:31:11.278Z,97.60
2022-09-26T10:34:04.253Z,97.24
2022-09-26T10:36:38.101Z,97.26
2022-09-26T10:39:34.306Z,96.96
2022-09-26T10:42:04.255Z,96.76
2022-09-26T10:44:34.852Z,96.91
2022-09-26T10:47:08.738Z,96.87
2022-09-26T10:49:59.229Z,96.64
2022-09-26T10:53:09.635Z,96.11
2022-09-26T10:56:06.566Z,96.14
2022-09-26T10:58:41.973Z,95.61
2022-09-26T11:01:21.186Z,95.96
2022-09-26T11:03:50.468Z,96.46
2022-09-26T11:06:34.591Z,95.89
2022-09-26T11:09:18.243Z,95.73
2022-09-26T11:11:48.004Z,95.63
2022-09-26T11:14:28.460Z,95.45
2022-09-26T11:17:03.634Z,94.92
2022-09-26T11:19:42.757Z,95.00
2022-09-26T11:22:16.368Z,94.93
2022-09-26T11:25:11.778Z,94.64
2022-09-26T11:27:46.838Z,94.18
2022-09-26T11:30:21.750Z,93.44
2022-09-26T11:33:12.268Z,92.89
2022-09-26T11:36:18.191Z,92.94
2022-09-26T11:38:50.896Z,93.21
2022-09-26T11:41:36.583Z,93.13
2022-09-26T11:44:17.572Z,92.38
2022-09-26T11:47:10.084Z,91.50
2022-09-26T11:49:59.423Z,90.28
2022-09-26T11:53:19.800Z,90.74
2022-09-26T11:56:10.250Z,90.58
2022-09-26T11:58:59.334Z,89.53
2022-09-26T12:01:39.109Z,89.16
2022-09-26T12:04:34.661Z,88.97
2022-09-26T12:07:20.834Z,88.52
2022-09-26T12:10:26.446Z,88.60
2022-09-26T12:13:03.461Z,88.87
2022-09-26T12:15:44.057Z,88.94
2022-09-26T12:18:22.525Z,88.73
2022-09-26T12:20:50.494Z,88.79
2022-09-26T12:23:36.731Z,88.45
2022-09-26T12:26:17.849Z,87.71
2022-09-26T12:29:00.194Z,87.45
2022-09-26T12:31:48.977Z,87.36
2022-09-26T12:34:28.952Z,87.54
2022-09-26T12:37:19.013Z,86.41
2022-09-26T12:40:09.461Z,86.29
2022-09-26T12:42:40.648Z,86.07
2022-09-26T12:45:27.046Z,85.84
2022-09-26T12:48:00.534Z,85.19
2022-09-26T12:51:16.502Z,83.75
2022-09-26T12:54:09.200Z,83.01
2022-09-26T12:56:59.067Z,82.41
2022-09-26T12:59:52.840Z,82.12
2022-09-26T13:02:23.708Z,82.02
2022-09-26T13:05:16.941Z,82.72
2022-09-26T13:07:48.070Z,82.41
2022-09-26T13:10:35.017Z,82.75
2022-09-26T13:13:11.695Z,83.15
2022-09-26T13:16:13.429Z,83.38
2022-09-26T13:18:47.568Z,84.21
2022-09-26T13:21:24.913Z,83.91
2022-09-26T13:24:00.375Z,83.80
2022-09-26T13:26:43.908Z,83.91
2022-09-26T13:29:27.131Z,83.54
2022-09-26T13:32:22.956Z,83.14
2022-09-26T13:35:02.086Z,83.62
2022-09-26T13:37:41.418Z,84.22
2022-09-26T13:40:37.130Z,84.50
2022-09-26T13:43:35.522Z,84.77
2022-09-26T13:46:31.926Z,84.97
2022-09-26T13:49:27.952Z,84.96
2022-09-26T13:52:34.453Z,84.61
2022-09-26T13:55:20.029Z,84.41
2022-09-26T13:57:49.962Z,84.71
2022-09-26T14:00:17.918Z,84.84
2022-09-26T14:03:11.128Z,85.16
2022-09-26T14:05:42.225Z,85.39
2022-09-26T14:08:43.870Z,85.46
2022-09-26T14:11:32.636Z,85.38
2022-09-26T14:14:26.510Z,85.13
2022-09-26T14:17:03.049Z,84.66
2022-09-26T14:19:41.359Z,84.52
2022-09-26T14:22:21.548Z,84.39
2022-09-26T14:24:53.815Z,84.40
2022-09-26T14:27:42.241Z,84.04
2022-09-26T14:30:30.311Z,84.28
2022-09-26T14:33:02.672Z,85.04
2022-09-26T14:35:33.822Z,84.79
2022-09-26T14:38:17.306Z,84.29
2022-09-26T14:40:57.999Z,84.09
2022-09-26T14:43:30.420Z,84.06
2022-09-26T14:46:05.914Z,84.09
2022-09-26T14:48:40.303Z,84.63
2022-09-26T14:51:11.290Z,84.98
2022-09-26T14:53:53.239Z,85.18
2022-09-26T14:56:30.064Z,85.45
2022-09-26T14:59:35.632Z,85.64
2022-09-26T15:02:31.719Z,86.14
2022-09-26T15:05:11.587Z,86.37
2022-09-26T15:07:49.229Z,86.50
2022-09-26T15:10:21.968Z,86.43
2022-09-26T15:13:11.024Z,86.10
2022-09-26T15:15:44.744Z,86.31
2022-09-26T15:18:38.918Z,86.53
2022-09-26T15:21:18.861Z,87.08
2022-09-26T15:23:53.264Z,87.16
2022-09-26T15:26:28.525Z,87.33
2022-09-26T15:28:58.406Z,87.33
2022-09-26T15:31:36.876Z,87.63
2022-09-26T15:34:19.239Z,88.04
2022-09-26T15:36:56.623Z,88.01
2022-09-26T15:39:31.060Z,88.16
2022-09-26T15:42:20.535Z,89.12
2022-09-26T15:44:59.665Z,88.83
2022-09-26T15:47:31.736Z,89.23
2022-09-26T15:50:10.786Z,89.40
2022-09-26T15:52:51.288Z,89.52
2022-09-26T15:55:27.095Z,89.61
2022-09-26T15:57:59.270Z,89.57
2022-09-26T16:00:34.039Z,90.00
2022-09-26T16:03:19.986Z,89.83
2022-09-26T16:05:49.464Z,89.95
2022-09-26T16:08:24.635Z,90.51
2022-09-26T16:10:57.424Z,90.95
2022-09-26T16:13:30.621Z,91.06
2022-09-26T16:16:21.618Z,91.33
2022-09-26T16:18:56.069Z,91.49
2022-09-26T16:21:27.517Z,91.49
2022-09-26T16:23:58.274Z,91.08
2022-09-26T16:26:38.133Z,90.74
2022-09-26T16:29:08.501Z,90.71
2022-09-26T16:31:48.933Z,90.61
2022-09-26T16:34:23.179Z,90.92
2022-09-26T16:36:51.331Z,90.81
2022-09-26T16:39:31.054Z,90.94
2022-09-26T16:42:06.096Z,91.80
2022-09-26T16:44:41.175Z,91.35
2022-09-26T16:47:29.971Z,91.36
2022-09-26T16:50:30.486Z,91.87
2022-09-26T16:52:59.562Z,91.84
2022-09-26T16:55:27.928Z,92.05
2022-09-26T16:58:04.347Z,92.19
2022-09-26T17:00:53.524Z,92.74
2022-09-26T17:03:31.318Z,93.54
2022-09-26T17:06:00.417Z,93.85
2022-09-26T17:08:28.784Z,93.65
2022-09-26T17:11:02.831Z,93.34
2022-09-26T17:13:34.074Z,93.89
2022-09-26T17:16:03.791Z,93.55
2022-09-26T17:18:33.847Z,94.25
2022-09-26T17:21:02.575Z,94.26
2022-09-26T17:23:40.471Z,94.75
2022-09-26T17:26:23.936Z,95.33
2022-09-26T17:28:53.484Z,94.86
2022-09-26T17:31:21.602Z,95.04
2022-09-26T17:33:53.478Z,94.80
2022-09-26T17:36:24.681Z,94.40
2022-09-26T17:38:53.709Z,94.59
2022-09-26T17:41:23.166Z,95.29
2022-09-26T17:44:00.508Z,95.72
2022-09-26T17:46:29.079Z,95.32
2022-09-26T17:48:57.310Z,95.27
2022-09-26T17:51:26.000Z,95.30
2022-09-26T17:53:57.595Z,96.03
2022-09-26T17:56:26.656Z,95.93
2022-09-26T17:58:57.036Z,96.17
2022-09-26T18:01:27.052Z,95.60
2022-09-26T18:04:00.040Z,95.60
2022-09-26T18:06:32.841Z,96.20
2022-09-26T18:09:07.552Z,95.86
2022-09-26T18:11:37.412Z,95.93
2022-09-26T18:14:06.909Z,95.76
2022-09-26T18:16:35.371Z,95.98
2022-09-26T18:19:07.409Z,96.91
2022-09-26T18:21:36.446Z,96.45
2022-09-26T18:24:10.416Z,96.65
2022-09-26T18:26:47.436Z,96.71
2022-09-26T18:29:30.047Z,96.77
2022-09-26T18:31:59.539Z,97.29
2022-09-26T18:34:27.921Z,97.03
2022-09-26T18:37:00.620Z,97.37
2022-09-26T18:39:30.615Z,96.88
2022-09-26T18:42:02.607Z,97.03
2022-09-26T18:44:35.309Z,96.63
2022-09-26T18:47:16.334Z,96.16
2022-09-26T18:49:46.952Z,96.44
2022-09-26T18:52:17.906Z,96.93
2022-09-26T18:54:46.086Z,97.24
2022-09-26T18:57:49.676Z,98.12
2022-09-26T19:00:17.776Z,98.07
2022-09-26T19:02:45.931Z,98.27
2022-09-26T19:05:16.652Z,98.45
2022-09-26T19:07:45.065Z,98.61
2022-09-26T19:10:17.618Z,97.82
2022-09-26T19:12:45.882Z,98.50
2022-09-26T19:15:15.837Z,97.86
2022-09-26T19:17:43.665Z,98.05
2022-09-26T19:20:11.642Z,98.38
2022-09-26T19:22:39.624Z,98.32
2022-09-26T19:25:10.091Z,99.31
2022-09-26T19:27:50.439Z,99.96
2022-09-26T19:30:24.599Z,100.00
2022-09-26T19:32:54.447Z,100.00
2022-09-26T19:35:32.097Z,100.00
2022-09-26T19:38:02.143Z,99.18
2022-09-26T19:40:30.290Z,98.67
2022-09-26T19:42:58.982Z,98.93
2022-09-26T19:45:27.114Z,99.50
2022-09-26T19:47:56.355Z,99.67
2022-09-26T19:50:26.581Z,99.96
2022-09-26T19:52:58.543Z,100.00
2022-09-26T19:55:30.479Z,100.00
2022-09-26T19:58:21.813Z,100.00
2022-09-26T20:00:56.544Z,100.00
2022-09-26T20:03:40.023Z,100.00
2022-09-26T20:06:23.636Z,100.00
2022-09-26T20:08:59.068Z,100.00
2022-09-26T20:11:29.685Z,100.00
2022-09-26T20:14:16.555Z,100.00
2022-09-26T20:16:44.797Z,100.00
2022-09-26T20:19:21.813Z,100.00
2022-09-26T20:21:49.924Z,100.00
2022-09-26T20:24:19.161Z,100.00
2022-09-26T20:26:48.288Z,100.00
2022-09-26T20:29:17.318Z,100.00
2022-09-26T20:31:47.627Z,100.00
2022-09-26T20:34:17.169Z,100.00
2022-09-26T20:36:48.992Z,100.00
2022-09-26T20:39:24.044Z,100.00
2022-09-26T20:41:52.877Z,100.00
2022-09-26T20:44:28.025Z,100.00
2022-09-26T20:47:04.769Z,100.00
2022-09-26T20:49:43.508Z,100.00
2022-09-26T20:52:20.818Z,100.00
2022-09-26T20:54:49.203Z,100.00
2022-09-26T20:57:17.730Z,100.00
2022-09-26T20:59:48.454Z,100.00
2022-09-26T21:02:28.913Z,100.00
2022-09-26T21:05:00.332Z,100.00
2022-09-26T21:07:31.311Z,100.00
2022-09-26T21:09:59.115Z,100.00
2022-09-26T21:12:27.323Z,100.00
2022-09-26T21:14:55.288Z,100.00
2022-09-26T21:17:28.149Z,100.00
2022-09-26T21:19:56.550Z,100.00
2022-09-26T21:22:43.564Z,100.00
2022-09-26T21:25:16.039Z,100.00
2022-09-26T21:27:51.180Z,100.00
2022-09-26T21:30:20.119Z,100.00
2022-09-26T21:32:51.625Z,100.00
2022-09-26T21:35:20.954Z,100.00
2022-09-26T21:37:54.882Z,100.00
2022-09-26T21:40:26.350Z,100.00
2022-09-26T21:43:04.282Z,100.00
2022-09-26T21:45:32.861Z,100.00
2022-09-26T21:48:01.034Z,100.00
2022-09-26T21:50:29.550Z,100.00
2022-09-26T21:53:05.368Z,100.00
2022-09-26T21:55:37.298Z,100.00
2022-09-26T21:58:09.706Z,100.00
2022-09-26T22:00:37.880Z,100.00
2022-09-26T22:03:07.124Z,100.00
2022-09-26T22:05:35.252Z,100.00
2022-09-26T22:08:03.878Z,100.00
2022-09-26T22:10:32.114Z,100.00
2022-09-26T22:12:59.947Z,100.00
2022-09-26T22:15:27.858Z,100.00
2022-09-26T22:17:55.815Z,100.00
2022-09-26T22:20:24.086Z,100.00
2022-09-26T22:22:52.157Z,100.00
2022-09-26T22:25:20.154Z,100.00
2022-09-26T22:27:48.193Z,100.00
2022-09-26T22:30:16.263Z,100.00
2022-09-26T22:32:44.424Z,100.00
2022-09-26T22:35:12.305Z,100.00
2022-09-26T22:37:40.325Z,100.00
2022-09-26T22:40:09.059Z,100.00
2022-09-26T22:42:37.465Z,100.00
2022-09-26T22:45:06.022Z,100.00
2022-09-26T22:47:34.400Z,100.00
2022-09-26T22:50:02.577Z,100.00
2022-09-26T22:52:30.647Z,100.00
2022-09-26T22:54:58.723Z,100.00
2022-09-26T22:57:26.810Z,100.00
2022-09-26T22:59:54.674Z,100.00
2022-09-26T23:02:22.623Z,100.00
2022-09-26T23:04:50.963Z,100.00
2022-09-26T23:07:20.095Z,100.00
2022-09-26T23:09:48.059Z,100.00
2022-09-26T23:12:16.114Z,100.00
2022-09-26T23:14:44.305Z,100.00
2022-09-26T23:17:12.618Z,100.00
2022-09-26T23:19:41.442Z,100.00
2022-09-26T23:22:09.336Z,100.00
2022-09-26T23:24:37.721Z,100.00
2022-09-26T23:27:05.590Z,100.00
2022-09-26T23:29:33.551Z,100.00
2022-09-26T23:32:01.649Z,100.00
2022-09-26T23:34:29.794Z,100.00
2022-09-26T23:36:57.788Z,100.00
2022-09-26T23:39:25.729Z,100.00
2022-09-26T23:41:53.980Z,100.00
2022-09-26T23:44:22.174Z,100.00
2022-09-26T23:46:50.102Z,100.00
2022-09-26T23:49:18.117Z,100.00
2022-09-26T23:51:47.825Z,100.00
2022-09-26T23:54:15.899Z,100.00
2022-09-26T23:56:43.969Z,100.00
2022-09-26T23:59:11.888Z,100.00
